createdAt,value
2023-10-20T00:01:07.207Z,1.98
2023-10-20T00:03:34.020Z,2.65
2023-10-20T00:06:01.018Z,2.38
2023-10-20T00:08:27.691Z,2.50
2023-10-20T00:10:58.500Z,2.05
2023-10-20T00:13:26.206Z,3.85
2023-10-20T00:15:52.827Z,2.25
2023-10-20T00:18:19.626Z,2.53
2023-10-20T00:20:47.425Z,2.88
2023-10-20T00:23:16.347Z,3.17
2023-10-20T00:25:43.675Z,3.13
2023-10-20T00:28:10.373Z,2.70
2023-10-20T00:30:41.524Z,2.38
2023-10-20T00:33:08.734Z,2.60
2023-10-20T00:35:35.415Z,2.42
2023-10-20T00:38:02.422Z,3.17
2023-10-20T00:40:29.021Z,3.20
2023-10-20T00:42:55.868Z,3.10
2023-10-20T00:45:22.437Z,3.08
2023-10-20T00:47:52.404Z,2.60
2023-10-20T00:50:19.511Z,3.30
2023-10-20T00:52:49.807Z,3.10
2023-10-20T00:55:16.762Z,4.07
2023-10-20T00:57:47.318Z,3.05
2023-10-20T01:00:17.468Z,2.60
2023-10-20T01:02:47.519Z,2.42
2023-10-20T01:05:23.715Z,3.30
2023-10-20T01:07:50.689Z,3.22
2023-10-20T01:10:17.294Z,2.90
2023-10-20T01:12:44.072Z,3.08
2023-10-20T01:15:11.710Z,3.42
2023-10-20T01:17:39.501Z,2.65
2023-10-20T01:20:07.631Z,3.05
2023-10-20T01:22:35.044Z,2.53
2023-10-20T01:25:02.326Z,2.72
2023-10-20T01:27:28.948Z,4.43
2023-10-20T01:29:55.722Z,2.50
2023-10-20T01:32:24.826Z,2.95
2023-10-20T01:34:51.647Z,2.60
2023-10-20T01:37:19.204Z,2.40
2023-10-20T01:39:50.823Z,2.80
2023-10-20T01:42:17.464Z,2.40
2023-10-20T01:44:47.041Z,2.30
2023-10-20T01:47:16.687Z,3.03
2023-10-20T01:49:45.174Z,2.40
2023-10-20T01:52:11.797Z,2.72
2023-10-20T01:54:38.994Z,2.95
2023-10-20T01:57:05.534Z,2.22
2023-10-20T01:59:35.101Z,2.20
2023-10-20T02:02:01.734Z,2.08
2023-10-20T02:04:29.128Z,2.50
2023-10-20T02:06:55.637Z,2.20
2023-10-20T02:09:23.087Z,3.05
2023-10-20T02:11:54.362Z,2.28
2023-10-20T02:14:21.061Z,2.33
2023-10-20T02:16:47.742Z,2.20
2023-10-20T02:19:18.570Z,2.10
2023-10-20T02:21:52.423Z,2.22
2023-10-20T02:24:19.067Z,2.47
2023-10-20T02:26:47.626Z,2.20
2023-10-20T02:29:14.360Z,2.28
2023-10-20T02:31:41.185Z,2.40
2023-10-20T02:34:07.719Z,2.05
2023-10-20T02:36:35.710Z,2.78
2023-10-20T02:39:03.470Z,2.33
2023-10-20T02:41:30.185Z,2.40
2023-10-20T02:43:56.840Z,2.70
2023-10-20T02:46:23.935Z,2.38
2023-10-20T02:48:50.874Z,2.42
2023-10-20T02:51:18.858Z,2.20
2023-10-20T02:53:45.918Z,2.40
2023-10-20T02:56:21.661Z,2.10
2023-10-20T02:58:48.838Z,2.28
2023-10-20T03:01:17.679Z,2.47
2023-10-20T03:03:45.778Z,2.40
2023-10-20T03:06:13.018Z,3.40
2023-10-20T03:08:40.687Z,2.58
2023-10-20T03:11:08.817Z,2.83
2023-10-20T03:13:35.725Z,2.50
2023-10-20T03:16:02.529Z,2.45
2023-10-20T03:18:29.580Z,2.92
2023-10-20T03:21:02.893Z,2.42
2023-10-20T03:23:30.697Z,2.70
2023-10-20T03:25:57.748Z,2.33
2023-10-20T03:28:24.424Z,2.47
2023-10-20T03:30:52.708Z,2.28
2023-10-20T03:33:19.631Z,2.17
2023-10-20T03:35:47.101Z,2.00
2023-10-20T03:38:14.021Z,2.70
2023-10-20T03:40:45.975Z,2.47
2023-10-20T03:43:18.249Z,2.65
2023-10-20T03:45:53.975Z,2.63
2023-10-20T03:48:20.878Z,2.65
2023-10-20T03:50:50.877Z,2.20
2023-10-20T03:53:28.385Z,2.40
2023-10-20T03:56:02.568Z,2.55
2023-10-20T03:58:30.723Z,2.60
2023-10-20T04:00:58.801Z,2.05
2023-10-20T04:03:28.628Z,2.55
2023-10-20T04:05:55.374Z,2.53
2023-10-20T04:08:24.240Z,2.92
2023-10-20T04:11:00.432Z,2.60
2023-10-20T04:13:29.666Z,2.58
2023-10-20T04:15:56.524Z,3.38
2023-10-20T04:18:25.902Z,3.42
2023-10-20T04:20:58.779Z,2.90
2023-10-20T04:23:25.754Z,3.40
2023-10-20T04:25:56.959Z,3.10
2023-10-20T04:28:34.440Z,3.17
2023-10-20T04:31:19.904Z,3.20
2023-10-20T04:34:05.120Z,2.97
2023-10-20T04:36:50.345Z,3.15
2023-10-20T04:39:37.214Z,3.40
2023-10-20T04:42:16.460Z,3.13
2023-10-20T04:44:49.224Z,4.13
2023-10-20T04:47:35.428Z,3.25
2023-10-20T04:50:27.329Z,3.38
2023-10-20T04:53:05.804Z,3.47
2023-10-20T04:55:51.224Z,4.30
2023-10-20T04:58:41.563Z,3.60
2023-10-20T05:01:26.825Z,3.47
2023-10-20T05:03:57.261Z,4.07
2023-10-20T05:06:25.054Z,3.83
2023-10-20T05:08:52.876Z,4.15
2023-10-20T05:11:23.280Z,4.53
2023-10-20T05:13:50.493Z,4.60
2023-10-20T05:16:17.643Z,5.15
2023-10-20T05:18:45.912Z,3.47
2023-10-20T05:21:13.541Z,4.07
2023-10-20T05:23:40.744Z,3.53
2023-10-20T05:26:10.113Z,4.05
2023-10-20T05:28:37.052Z,3.35
2023-10-20T05:31:04.057Z,3.10
2023-10-20T05:33:32.854Z,3.60
2023-10-20T05:36:06.343Z,3.60
2023-10-20T05:38:33.343Z,4.65
2023-10-20T05:41:01.338Z,5.90
2023-10-20T05:43:31.379Z,4.22
2023-10-20T05:45:58.653Z,4.20
2023-10-20T05:48:26.932Z,3.63
2023-10-20T05:50:58.738Z,4.80
2023-10-20T05:53:26.536Z,3.45
2023-10-20T05:55:54.210Z,3.42
2023-10-20T05:58:21.276Z,3.30
2023-10-20T06:01:02.942Z,4.80
2023-10-20T06:03:51.834Z,2.90
2023-10-20T06:06:22.198Z,3.00
2023-10-20T06:08:51.218Z,2.90
2023-10-20T06:11:17.866Z,3.95
2023-10-20T06:14:01.040Z,2.80
2023-10-20T06:16:55.644Z,2.83
2023-10-20T06:19:40.058Z,3.20
2023-10-20T06:22:07.079Z,3.05
2023-10-20T06:24:40.889Z,2.97
2023-10-20T06:27:08.754Z,3.40
2023-10-20T06:29:35.800Z,3.22
2023-10-20T06:32:26.758Z,3.55
2023-10-20T06:35:04.110Z,3.33
2023-10-20T06:37:37.426Z,4.05
2023-10-20T06:40:08.159Z,3.10
2023-10-20T06:42:40.342Z,3.10
2023-10-20T06:45:09.206Z,3.47
2023-10-20T06:47:36.262Z,3.30
2023-10-20T06:50:17.304Z,3.47
2023-10-20T06:52:45.366Z,3.63
2023-10-20T06:55:50.428Z,4.18
2023-10-20T06:58:04.267Z,4.57
2023-10-20T07:00:30.814Z,4.03
2023-10-20T07:03:00.615Z,3.50
2023-10-20T07:05:27.829Z,3.63
2023-10-20T07:07:56.120Z,3.25
2023-10-20T07:10:23.538Z,4.32
2023-10-20T07:12:50.129Z,4.03
2023-10-20T07:15:19.977Z,3.20
2023-10-20T07:17:46.645Z,4.10
2023-10-20T07:20:13.408Z,4.13
2023-10-20T07:22:41.626Z,3.20
2023-10-20T07:25:09.306Z,3.50
2023-10-20T07:27:35.989Z,3.85
2023-10-20T07:30:04.778Z,4.43
2023-10-20T07:32:33.718Z,4.43
2023-10-20T07:35:05.463Z,4.35
2023-10-20T07:37:34.977Z,4.20
2023-10-20T07:40:07.106Z,4.95
2023-10-20T07:42:36.454Z,4.88
2023-10-20T07:45:04.306Z,4.25
2023-10-20T07:47:33.198Z,4.13
2023-10-20T07:50:01.003Z,4.53
2023-10-20T07:52:28.821Z,5.20
2023-10-20T07:54:58.432Z,7.47
2023-10-20T07:57:25.582Z,5.93
2023-10-20T07:59:54.307Z,9.35
2023-10-20T08:02:21.180Z,5.72
2023-10-20T08:04:48.450Z,5.85
2023-10-20T08:07:15.721Z,5.22
2023-10-20T08:09:45.157Z,5.57
2023-10-20T08:12:12.161Z,6.88
2023-10-20T08:14:40.129Z,6.18
2023-10-20T08:17:11.563Z,5.57
2023-10-20T08:19:51.936Z,5.43
2023-10-20T08:22:18.565Z,5.20
2023-10-20T08:24:45.771Z,5.40
2023-10-20T08:27:14.535Z,6.07
2023-10-20T08:29:44.636Z,5.32
2023-10-20T08:32:14.390Z,5.80
2023-10-20T08:34:44.888Z,6.05
2023-10-20T08:37:12.670Z,7.20
2023-10-20T08:39:40.168Z,5.88
2023-10-20T08:42:18.210Z,6.95
2023-10-20T08:44:45.629Z,6.35
2023-10-20T08:47:18.157Z,7.00
2023-10-20T08:49:49.691Z,6.28
2023-10-20T08:52:18.578Z,6.53
2023-10-20T08:54:50.196Z,6.68
2023-10-20T08:57:19.013Z,7.82
2023-10-20T08:59:56.767Z,7.90
2023-10-20T09:04:58.935Z,6.55
2023-10-20T09:07:27.635Z,6.28
2023-10-20T09:10:06.702Z,5.80
2023-10-20T09:12:34.832Z,4.90
2023-10-20T09:15:02.768Z,4.65
2023-10-20T09:17:36.092Z,5.13
2023-10-20T09:20:13.337Z,5.28
2023-10-20T09:22:41.137Z,5.40
2023-10-20T09:25:11.412Z,5.65
2023-10-20T09:27:45.047Z,4.80
2023-10-20T09:30:19.460Z,5.38
2023-10-20T09:32:50.257Z,5.35
2023-10-20T09:35:18.656Z,4.32
2023-10-20T09:37:50.563Z,3.95
2023-10-20T09:40:19.194Z,4.47
2023-10-20T09:43:24.892Z,4.72
2023-10-20T09:46:05.351Z,4.40
2023-10-20T09:48:33.921Z,3.80
2023-10-20T09:51:01.176Z,3.50
2023-10-20T09:53:28.130Z,2.72
2023-10-20T09:55:55.128Z,3.05
2023-10-20T09:58:26.897Z,3.13
2023-10-20T10:00:56.520Z,3.10
2023-10-20T10:03:42.277Z,3.22
2023-10-20T10:06:18.254Z,3.50
2023-10-20T10:08:45.361Z,2.85
2023-10-20T10:11:23.663Z,2.83
2023-10-20T10:14:04.762Z,3.65
2023-10-20T10:16:34.531Z,3.00
2023-10-20T10:19:21.983Z,2.80
2023-10-20T10:21:58.184Z,3.00
2023-10-20T10:24:26.324Z,2.70
2023-10-20T10:26:58.253Z,2.92
2023-10-20T10:30:01.869Z,2.93
2023-10-20T10:32:32.933Z,2.72
2023-10-20T10:35:00.867Z,2.80
2023-10-20T10:37:36.060Z,2.35
2023-10-20T10:40:17.690Z,2.85
2023-10-20T10:42:47.067Z,2.47
2023-10-20T10:45:25.064Z,2.60
2023-10-20T10:48:03.933Z,2.30
2023-10-20T10:50:32.318Z,2.72
2023-10-20T10:52:59.736Z,2.95
2023-10-20T10:55:34.447Z,1.88
2023-10-20T10:58:01.626Z,1.98
2023-10-20T11:00:30.328Z,2.17
2023-10-20T11:02:58.628Z,2.13
2023-10-20T11:05:29.925Z,2.22
2023-10-20T11:08:01.843Z,2.00
2023-10-20T11:10:37.670Z,1.55
2023-10-20T11:13:15.163Z,1.17
2023-10-20T11:18:27.869Z,2.08
2023-10-20T11:20:55.074Z,0.90
2023-10-20T11:23:35.404Z,1.10
2023-10-20T11:26:03.870Z,1.10
2023-10-20T11:28:33.713Z,0.90
2023-10-20T11:31:00.697Z,0.80
2023-10-20T11:33:27.526Z,0.55
2023-10-20T11:35:55.147Z,0.60
2023-10-20T11:38:22.838Z,0.60
2023-10-20T11:40:50.765Z,0.65
2023-10-20T11:43:17.685Z,0.70
2023-10-20T11:45:46.986Z,0.60
2023-10-20T11:48:13.675Z,0.85
2023-10-20T11:50:41.003Z,0.60
2023-10-20T11:53:07.921Z,0.60
2023-10-20T11:55:34.790Z,1.27
2023-10-20T11:58:04.891Z,1.73
2023-10-20T12:00:33.695Z,1.20
2023-10-20T12:03:07.754Z,2.00
2023-10-20T12:05:38.820Z,2.40
2023-10-20T12:08:08.595Z,3.08
2023-10-20T12:10:40.320Z,1.33
2023-10-20T12:13:07.977Z,0.50
2023-10-20T12:15:47.932Z,0.80
2023-10-20T12:18:16.027Z,0.50
2023-10-20T12:20:48.741Z,4.35
2023-10-20T12:23:19.082Z,1.17
2023-10-20T12:25:45.780Z,1.20
2023-10-20T12:28:16.092Z,0.75
2023-10-20T12:30:48.946Z,1.77
2023-10-20T12:33:16.543Z,1.15
2023-10-20T12:35:43.623Z,0.75
2023-10-20T12:38:14.944Z,0.75
2023-10-20T12:40:41.751Z,0.60
2023-10-20T12:43:15.146Z,0.63
2023-10-20T12:45:42.092Z,1.00
2023-10-20T12:48:09.160Z,0.80
2023-10-20T12:50:40.437Z,0.82
2023-10-20T12:53:09.950Z,0.70
2023-10-20T12:55:36.564Z,0.90
2023-10-20T12:58:10.518Z,1.85
2023-10-20T13:00:46.406Z,4.75
2023-10-20T13:03:17.782Z,2.17
2023-10-20T13:05:48.671Z,1.05
2023-10-20T13:08:15.409Z,1.58
2023-10-20T13:10:42.182Z,2.33
2023-10-20T13:13:10.816Z,3.47
2023-10-20T13:15:42.176Z,2.70
2023-10-20T13:18:10.113Z,1.50
2023-10-20T13:20:37.562Z,0.85
2023-10-20T13:23:04.274Z,0.60
2023-10-20T13:25:32.100Z,0.60
2023-10-20T13:28:00.443Z,0.90
2023-10-20T13:30:27.737Z,1.27
2023-10-20T13:32:56.915Z,0.75
2023-10-20T13:35:24.769Z,0.70
2023-10-20T13:37:51.454Z,0.77
2023-10-20T13:40:18.903Z,0.98
2023-10-20T13:42:48.880Z,3.88
2023-10-20T13:45:15.584Z,4.72
2023-10-20T13:47:46.997Z,7.55
2023-10-20T13:50:18.733Z,5.40
2023-10-20T13:52:46.366Z,5.47
2023-10-20T13:55:13.741Z,5.35
2023-10-20T13:57:41.075Z,2.60
2023-10-20T14:00:08.671Z,1.27
2023-10-20T14:02:36.611Z,0.77
2023-10-20T14:05:03.274Z,0.80
2023-10-20T14:07:30.097Z,1.00
2023-10-20T14:09:58.014Z,0.68
2023-10-20T14:12:25.712Z,0.57
2023-10-20T14:14:54.305Z,0.82
2023-10-20T14:17:21.808Z,1.00
2023-10-20T14:19:48.510Z,0.98
2023-10-20T14:22:15.166Z,1.13
2023-10-20T14:24:41.726Z,1.20
2023-10-20T14:27:08.345Z,1.27
2023-10-20T14:29:35.430Z,1.00
2023-10-20T14:32:02.675Z,0.82
2023-10-20T14:34:34.423Z,0.90
2023-10-20T14:37:01.041Z,0.95
2023-10-20T14:39:28.449Z,1.38
2023-10-20T14:41:55.331Z,1.27
2023-10-20T14:44:23.514Z,1.92
2023-10-20T14:46:50.365Z,0.80
2023-10-20T14:49:17.073Z,1.00
2023-10-20T14:51:44.440Z,1.20
2023-10-20T14:54:22.748Z,1.30
2023-10-20T14:56:50.640Z,2.17
2023-10-20T14:59:17.252Z,2.50
2023-10-20T15:01:47.193Z,1.98
2023-10-20T15:04:29.168Z,1.10
2023-10-20T15:07:10.355Z,2.45
2023-10-20T15:09:38.955Z,1.70
2023-10-20T15:12:12.377Z,1.05
2023-10-20T15:14:41.986Z,1.35
2023-10-20T15:17:11.158Z,1.55
2023-10-20T15:19:37.877Z,1.17
2023-10-20T15:22:10.282Z,1.35
2023-10-20T15:24:37.282Z,2.22
2023-10-20T15:27:04.319Z,1.50
2023-10-20T15:29:31.617Z,1.63
2023-10-20T15:31:58.625Z,1.40
2023-10-20T15:34:28.642Z,1.85
2023-10-20T15:36:55.269Z,1.35
2023-10-20T15:39:36.062Z,1.25
2023-10-20T15:42:10.817Z,2.15
2023-10-20T15:44:38.608Z,1.13
2023-10-20T15:47:06.697Z,1.30
2023-10-20T15:49:34.223Z,1.40
2023-10-20T15:52:04.741Z,1.50
2023-10-20T15:54:34.747Z,1.88
2023-10-20T15:57:01.507Z,1.98
2023-10-20T15:59:29.409Z,1.80
2023-10-20T16:01:56.195Z,2.20
2023-10-20T16:04:24.005Z,2.33
2023-10-20T16:06:50.775Z,2.90
2023-10-20T16:09:19.594Z,2.35
2023-10-20T16:11:47.598Z,2.00
2023-10-20T16:14:14.405Z,2.10
2023-10-20T16:16:42.499Z,4.00
2023-10-20T16:19:21.443Z,7.20
2023-10-20T16:21:48.622Z,5.43
2023-10-20T16:24:34.998Z,3.88
2023-10-20T16:27:16.798Z,4.60
2023-10-20T16:29:54.325Z,1.90
2023-10-20T16:32:30.520Z,2.53
2023-10-20T16:35:17.520Z,2.58
2023-10-20T16:38:05.823Z,2.33
2023-10-20T16:40:51.811Z,2.15
2023-10-20T16:43:40.812Z,2.83
2023-10-20T16:46:16.690Z,2.35
2023-10-20T16:48:54.590Z,2.67
2023-10-20T16:51:29.627Z,1.90
2023-10-20T16:53:56.270Z,4.15
2023-10-20T16:56:26.843Z,2.63
2023-10-20T16:58:59.314Z,2.80
2023-10-20T17:01:41.961Z,2.33
2023-10-20T17:04:12.967Z,2.72
2023-10-20T17:06:47.744Z,3.00
2023-10-20T17:09:16.238Z,2.85
2023-10-20T17:11:58.846Z,2.13
2023-10-20T17:14:54.288Z,2.30
2023-10-20T17:17:27.212Z,2.95
2023-10-20T17:19:59.147Z,2.83
2023-10-20T17:22:49.911Z,1.85
2023-10-20T17:25:35.228Z,2.25
2023-10-20T17:28:55.923Z,2.70
2023-10-20T17:31:23.538Z,2.70
2023-10-20T17:34:33.666Z,2.13
2023-10-20T17:37:22.322Z,2.50
2023-10-20T17:40:10.920Z,3.10
2023-10-20T17:43:09.052Z,2.75
2023-10-20T17:45:53.110Z,3.38
2023-10-20T17:48:28.072Z,2.67
2023-10-20T17:50:57.520Z,2.70
2023-10-20T17:53:40.214Z,2.35
2023-10-20T17:56:20.066Z,2.95
2023-10-20T18:05:21.012Z,2.58
2023-10-20T18:07:54.982Z,2.70
2023-10-20T18:10:22.349Z,2.90
2023-10-20T18:13:37.113Z,2.50
2023-10-20T18:19:14.038Z,2.67
2023-10-20T18:22:05.098Z,2.47
2023-10-20T18:24:39.504Z,2.50
2023-10-20T18:27:34.629Z,2.80
2023-10-20T18:30:30.742Z,3.70
2023-10-20T18:33:08.668Z,4.22
2023-10-20T18:35:56.241Z,4.43
2023-10-20T18:38:26.549Z,2.72
2023-10-20T18:40:56.639Z,2.78
2023-10-20T18:43:23.714Z,3.97
2023-10-20T18:46:00.144Z,2.30
2023-10-20T18:48:28.020Z,3.00
2023-10-20T18:51:11.392Z,2.45
2023-10-20T18:53:50.538Z,2.25
2023-10-20T18:56:23.252Z,2.00
2023-10-20T18:58:50.183Z,2.03
2023-10-20T19:01:31.404Z,1.83
2023-10-20T19:04:17.176Z,1.70
2023-10-20T19:06:43.988Z,1.60
2023-10-20T19:09:11.063Z,1.48
2023-10-20T19:14:21.324Z,1.50
2023-10-20T19:16:56.820Z,1.92
2023-10-20T19:19:41.381Z,1.70
2023-10-20T19:22:20.935Z,1.95
2023-10-20T19:24:53.274Z,2.28
2023-10-20T19:28:22.474Z,3.95
2023-10-20T19:34:09.355Z,2.53
2023-10-20T19:37:22.096Z,2.45
2023-10-20T19:39:51.614Z,1.73
2023-10-20T19:42:19.416Z,1.92
2023-10-20T19:48:24.277Z,1.40
2023-10-20T19:51:52.354Z,1.85
2023-10-20T19:54:57.278Z,1.63
2023-10-20T19:57:29.702Z,2.20
2023-10-20T20:00:06.824Z,3.80
2023-10-20T20:02:39.640Z,1.80
2023-10-20T20:05:49.597Z,3.17
2023-10-20T20:09:11.618Z,3.95
2023-10-20T20:12:26.707Z,2.20
2023-10-20T20:15:38.310Z,2.72
2023-10-20T20:18:38.264Z,3.97
2023-10-20T20:21:05.788Z,1.90
2023-10-20T20:24:01.676Z,2.35
2023-10-20T20:26:28.753Z,1.90
2023-10-20T20:34:38.620Z,1.60
2023-10-20T20:37:10.235Z,1.55
2023-10-20T20:39:37.254Z,3.08
2023-10-20T20:42:08.981Z,1.80
2023-10-20T20:44:40.395Z,1.63
2023-10-20T20:47:10.369Z,1.38
2023-10-20T20:49:37.312Z,2.03
2023-10-20T20:52:09.481Z,1.50
2023-10-20T20:57:42.429Z,1.65
2023-10-20T21:00:13.834Z,1.20
2023-10-20T21:02:49.961Z,1.50
2023-10-20T21:05:16.639Z,1.63
2023-10-20T21:10:31.553Z,1.65
2023-10-20T21:13:00.934Z,1.48
2023-10-20T21:16:02.656Z,2.17
2023-10-20T21:18:50.913Z,1.70
2023-10-20T21:24:57.471Z,1.58
2023-10-20T21:27:38.713Z,1.83
2023-10-20T21:30:19.425Z,1.40
2023-10-20T21:32:51.390Z,1.50
2023-10-20T21:35:25.494Z,1.63
2023-10-20T21:40:52.052Z,1.88
2023-10-20T21:43:22.317Z,1.45
2023-10-20T21:45:59.678Z,1.30
2023-10-20T21:48:26.946Z,1.30
2023-10-20T21:51:14.559Z,1.17
2023-10-20T21:53:44.316Z,1.58
2023-10-20T21:56:11.201Z,1.60
2023-10-20T21:58:42.065Z,1.30
2023-10-20T22:01:15.310Z,1.75
2023-10-20T22:03:45.136Z,1.70
2023-10-20T22:06:26.311Z,3.10
2023-10-20T22:08:56.504Z,1.80
2023-10-20T22:11:30.047Z,2.65
2023-10-20T22:13:58.169Z,1.60
2023-10-20T22:16:29.922Z,1.77
2023-10-20T22:19:00.026Z,2.90
2023-10-20T22:21:31.686Z,1.88
2023-10-20T22:24:01.499Z,1.58
2023-10-20T22:26:28.185Z,1.50
2023-10-20T22:28:55.017Z,1.40
2023-10-20T22:31:23.359Z,1.25
2023-10-20T22:33:51.057Z,1.98
2023-10-20T22:36:21.671Z,1.45
2023-10-20T22:38:48.253Z,1.42
2023-10-20T22:41:18.801Z,1.13
2023-10-20T22:43:53.480Z,1.10
2023-10-20T22:46:23.554Z,1.35
2023-10-20T22:48:52.346Z,1.33
2023-10-20T22:51:36.380Z,1.13
2023-10-20T22:56:51.031Z,1.02
2023-10-20T22:59:20.981Z,1.00
2023-10-20T23:01:53.940Z,2.45
2023-10-20T23:04:23.499Z,1.23
2023-10-20T23:06:50.862Z,1.17
2023-10-20T23:09:21.046Z,2.20
2023-10-20T23:11:47.880Z,1.88
2023-10-20T23:14:16.049Z,1.27
2023-10-20T23:16:45.490Z,1.27
2023-10-20T23:19:14.967Z,1.20
2023-10-20T23:21:41.636Z,1.13
2023-10-20T23:24:11.111Z,1.10
2023-10-20T23:26:45.351Z,1.45
2023-10-20T23:29:14.209Z,1.10
2023-10-20T23:31:40.897Z,1.75
2023-10-20T23:34:07.894Z,0.80
2023-10-20T23:36:36.613Z,0.80
2023-10-20T23:39:04.019Z,0.63
2023-10-20T23:41:30.936Z,0.60
2023-10-20T23:43:57.895Z,0.90
2023-10-20T23:46:26.787Z,0.60
2023-10-20T23:48:53.742Z,1.42
2023-10-20T23:51:33.759Z,0.40
2023-10-20T23:54:00.941Z,0.55
2023-10-20T23:56:32.501Z,0.70
2023-10-20T23:59:00.268Z,1.00
